createdAt,value
2022-11-11T00:02:42.099Z,12.70
2022-11-11T00:05:28.464Z,12.69
2022-11-11T00:08:14.117Z,12.69
2022-11-11T00:11:12.787Z,12.65
2022-11-11T00:13:58.286Z,12.63
2022-11-11T00:17:02.286Z,12.61
2022-11-11T00:20:06.264Z,12.60
2022-11-11T00:23:10.064Z,12.57
2022-11-11T00:26:17.872Z,12.55
2022-11-11T00:29:01.566Z,12.54
2022-11-11T00:32:05.717Z,12.53
2022-11-11T00:35:11.288Z,12.49
2022-11-11T00:38:08.743Z,12.50
2022-11-11T00:40:53.920Z,12.50
2022-11-11T00:43:39.612Z,12.51
2022-11-11T00:46:43.292Z,12.54
2022-11-11T00:49:47.435Z,12.54
2022-11-11T00:52:32.870Z,12.51
2022-11-11T00:55:18.537Z,12.52
2022-11-11T00:58:03.938Z,12.52
2022-11-11T01:00:55.666Z,12.55
2022-11-11T01:03:41.704Z,12.55
2022-11-11T01:06:27.974Z,12.59
2022-11-11T01:09:13.393Z,12.59
2022-11-11T01:11:59.223Z,12.62
2022-11-11T01:14:44.729Z,12.61
2022-11-11T01:17:30.356Z,12.62
2022-11-11T01:20:16.373Z,12.62
2022-11-11T01:23:02.104Z,12.63
2022-11-11T01:25:47.638Z,12.64
2022-11-11T01:28:34.128Z,12.64
2022-11-11T01:31:22.953Z,12.64
2022-11-11T01:34:08.843Z,12.65
2022-11-11T01:36:54.544Z,12.63
2022-11-11T01:39:40.211Z,12.61
2022-11-11T01:42:26.246Z,12.60
2022-11-11T01:45:42.491Z,12.59
2022-11-11T01:48:53.043Z,12.59
2022-11-11T01:52:04.905Z,12.56
2022-11-11T01:55:08.090Z,12.54
2022-11-11T01:58:01.352Z,12.53
2022-11-11T02:00:47.369Z,12.52
2022-11-11T02:03:40.527Z,12.50
2022-11-11T02:06:28.209Z,12.46
2022-11-11T02:09:14.109Z,12.45
2022-11-11T02:12:23.026Z,12.44
2022-11-11T02:15:09.482Z,12.44
2022-11-11T02:17:55.032Z,12.45
2022-11-11T02:20:44.603Z,12.44
2022-11-11T02:23:44.627Z,12.40
2022-11-11T02:26:33.650Z,12.42
2022-11-11T02:29:21.850Z,12.44
2022-11-11T02:32:07.352Z,12.46
2022-11-11T02:34:52.795Z,12.48
2022-11-11T02:37:38.281Z,12.49
2022-11-11T02:40:39.232Z,12.49
2022-11-11T02:43:25.602Z,12.49
2022-11-11T02:46:11.259Z,12.46
2022-11-11T02:48:56.647Z,12.46
2022-11-11T02:51:42.600Z,12.45
2022-11-11T02:54:28.865Z,12.45
2022-11-11T02:57:14.527Z,12.45
2022-11-11T03:00:01.315Z,12.47
2022-11-11T03:02:47.153Z,12.44
2022-11-11T03:05:33.007Z,12.45
2022-11-11T03:08:19.216Z,12.47
2022-11-11T03:11:05.317Z,12.49
2022-11-11T03:13:50.996Z,12.52
2022-11-11T03:16:56.083Z,12.54
2022-11-11T03:19:41.717Z,12.55
2022-11-11T03:25:40.652Z,12.61
2022-11-11T03:28:26.520Z,12.61
2022-11-11T03:31:12.140Z,12.60
2022-11-11T03:34:17.629Z,12.63
2022-11-11T03:37:24.725Z,12.61
2022-11-11T03:40:10.804Z,12.64
2022-11-11T03:43:01.194Z,12.66
2022-11-11T03:45:50.650Z,12.67
2022-11-11T03:48:36.409Z,12.71
2022-11-11T03:51:22.474Z,12.73
2022-11-11T03:54:08.057Z,12.76
2022-11-11T03:57:14.231Z,12.77
2022-11-11T03:59:59.824Z,12.78
2022-11-11T04:03:03.931Z,12.80
2022-11-11T04:06:08.476Z,12.80
2022-11-11T04:09:12.969Z,12.82
2022-11-11T04:11:58.697Z,12.82
2022-11-11T04:15:02.885Z,12.84
2022-11-11T04:17:48.837Z,12.88
2022-11-11T04:20:53.178Z,12.89
2022-11-11T04:23:38.820Z,12.91
2022-11-11T04:26:24.415Z,12.91
2022-11-11T04:29:28.306Z,12.90
2022-11-11T04:32:49.502Z,12.93
2022-11-11T04:35:35.042Z,12.91
2022-11-11T04:38:39.444Z,12.92
2022-11-11T04:41:36.106Z,12.91
2022-11-11T04:44:48.806Z,12.91
2022-11-11T04:47:34.411Z,12.91
2022-11-11T04:50:19.572Z,12.91
2022-11-11T04:53:10.870Z,12.93
2022-11-11T04:56:14.967Z,12.94
2022-11-11T04:59:20.258Z,12.95
2022-11-11T05:02:24.519Z,12.98
2022-11-11T05:05:10.279Z,13.00
2022-11-11T05:08:15.012Z,13.02
2022-11-11T05:11:00.597Z,13.03
2022-11-11T05:14:05.343Z,13.05
2022-11-11T05:17:16.206Z,13.04
2022-11-11T05:20:20.752Z,13.03
2022-11-11T05:23:06.605Z,13.03
2022-11-11T05:25:52.699Z,13.04
2022-11-11T05:28:38.029Z,13.06
2022-11-11T05:31:24.725Z,13.09
2022-11-11T05:34:10.309Z,13.10
2022-11-11T05:36:57.299Z,13.10
2022-11-11T05:39:43.892Z,13.13
2022-11-11T05:42:29.455Z,13.14
2022-11-11T05:45:15.113Z,13.16
2022-11-11T05:48:04.218Z,13.17
2022-11-11T05:50:50.138Z,13.19
2022-11-11T05:53:35.759Z,13.19
2022-11-11T05:56:21.305Z,13.19
2022-11-11T05:59:08.436Z,13.19
2022-11-11T06:01:55.287Z,13.19
2022-11-11T06:04:41.068Z,13.22
2022-11-11T06:07:29.833Z,13.23
2022-11-11T06:10:30.588Z,13.24
2022-11-11T06:13:16.077Z,13.23
2022-11-11T06:16:02.153Z,13.25
2022-11-11T06:18:47.985Z,13.24
2022-11-11T06:21:53.704Z,13.24
2022-11-11T06:24:39.070Z,13.24
2022-11-11T06:27:24.455Z,13.23
2022-11-11T06:30:44.126Z,13.25
2022-11-11T06:33:16.234Z,13.26
2022-11-11T06:36:02.657Z,13.28
2022-11-11T06:38:48.541Z,13.29
2022-11-11T06:41:33.805Z,13.30
2022-11-11T06:44:19.513Z,13.32
2022-11-11T06:47:05.437Z,13.33
2022-11-11T06:49:51.113Z,13.34
2022-11-11T06:52:36.821Z,13.34
2022-11-11T06:55:22.529Z,13.36
2022-11-11T06:58:16.599Z,13.36
2022-11-11T07:01:06.134Z,13.39
2022-11-11T07:03:51.585Z,13.40
2022-11-11T07:06:37.114Z,13.40
2022-11-11T07:09:23.479Z,13.41
2022-11-11T07:12:09.259Z,13.43
2022-11-11T07:14:54.543Z,13.46
2022-11-11T07:17:39.979Z,13.47
2022-11-11T07:20:25.514Z,13.49
2022-11-11T07:23:11.516Z,13.51
2022-11-11T07:25:56.956Z,13.51
2022-11-11T07:28:42.636Z,13.53
2022-11-11T07:31:28.657Z,13.55
2022-11-11T07:34:14.245Z,13.56
2022-11-11T07:36:59.928Z,13.59
2022-11-11T07:39:45.579Z,13.62
2022-11-11T07:42:31.985Z,13.61
2022-11-11T07:45:17.800Z,13.63
2022-11-11T07:48:03.424Z,13.66
2022-11-11T07:50:49.066Z,13.68
2022-11-11T07:53:34.585Z,13.73
2022-11-11T07:56:20.103Z,13.75
2022-11-11T07:59:05.822Z,13.80
2022-11-11T08:01:51.327Z,13.80
2022-11-11T08:04:36.877Z,13.84
2022-11-11T08:07:23.627Z,13.88
2022-11-11T08:10:11.177Z,13.88
2022-11-11T08:13:15.574Z,13.91
2022-11-11T08:16:02.893Z,13.90
2022-11-11T08:18:48.261Z,13.93
2022-11-11T08:21:34.327Z,13.95
2022-11-11T08:27:25.607Z,13.98
2022-11-11T08:30:11.708Z,13.97
2022-11-11T08:36:17.640Z,13.96
2022-11-11T08:39:07.181Z,13.98
2022-11-11T08:41:53.019Z,13.92
2022-11-11T08:44:39.187Z,13.88
2022-11-11T08:47:25.192Z,13.87
2022-11-11T08:50:11.486Z,13.85
2022-11-11T08:52:57.604Z,13.88
2022-11-11T08:55:43.159Z,13.90
2022-11-11T08:58:29.203Z,13.78
2022-11-11T09:01:15.720Z,13.82
2022-11-11T09:04:16.670Z,13.85
2022-11-11T09:07:09.480Z,13.87
2022-11-11T09:09:55.859Z,13.90
2022-11-11T09:12:41.207Z,13.87
2022-11-11T09:15:27.522Z,13.91
2022-11-11T09:18:13.090Z,13.95
2022-11-11T09:21:00.126Z,14.00
2022-11-11T09:23:45.846Z,14.05
2022-11-11T09:26:32.165Z,14.07
2022-11-11T09:29:18.452Z,14.09
2022-11-11T09:32:05.533Z,14.11
2022-11-11T09:34:51.271Z,14.14
2022-11-11T09:37:37.505Z,14.13
2022-11-11T09:40:29.722Z,14.19
2022-11-11T09:43:48.263Z,14.26
2022-11-11T09:46:40.978Z,14.33
2022-11-11T09:50:00.211Z,14.33
2022-11-11T09:53:11.702Z,14.33
2022-11-11T09:56:29.641Z,14.34
2022-11-11T09:59:29.232Z,14.42
2022-11-11T10:02:42.053Z,14.50
2022-11-11T10:05:45.213Z,14.56
2022-11-11T10:08:45.531Z,14.62
2022-11-11T10:11:47.844Z,14.70
2022-11-11T10:14:45.592Z,14.75
2022-11-11T10:17:40.871Z,14.84
2022-11-11T10:20:33.029Z,14.94
2022-11-11T10:23:26.947Z,15.05
2022-11-11T10:26:21.280Z,15.11
2022-11-11T10:29:19.119Z,15.15
2022-11-11T10:32:16.350Z,15.17
2022-11-11T10:35:31.008Z,15.13
2022-11-11T10:38:35.790Z,15.16
2022-11-11T10:41:37.787Z,15.19
2022-11-11T10:44:27.971Z,15.18
2022-11-11T10:47:41.361Z,15.19
2022-11-11T10:50:36.784Z,15.23
2022-11-11T10:53:44.430Z,15.25
2022-11-11T10:57:15.967Z,15.20
2022-11-11T11:00:09.894Z,15.27
2022-11-11T11:03:26.068Z,15.29
2022-11-11T11:06:26.861Z,15.32
2022-11-11T11:09:35.330Z,15.38
2022-11-11T11:12:40.329Z,15.40
2022-11-11T11:15:29.181Z,15.45
2022-11-11T11:18:19.111Z,15.50
2022-11-11T11:21:08.789Z,15.53
2022-11-11T11:23:54.815Z,15.53
2022-11-11T11:26:51.752Z,15.59
2022-11-11T11:29:43.910Z,15.64
2022-11-11T11:32:32.668Z,15.65
2022-11-11T11:35:35.636Z,15.74
2022-11-11T11:38:21.257Z,15.82
2022-11-11T11:41:06.933Z,15.88
2022-11-11T11:43:52.179Z,15.92
2022-11-11T11:46:41.116Z,15.93
2022-11-11T11:50:07.620Z,15.95
2022-11-11T11:53:38.916Z,16.00
2022-11-11T11:56:30.571Z,15.99
2022-11-11T11:59:45.504Z,16.00
2022-11-11T12:03:09.552Z,15.96
2022-11-11T12:06:26.269Z,15.94
2022-11-11T12:09:37.859Z,15.96
2022-11-11T12:12:52.766Z,15.98
2022-11-11T12:16:06.078Z,15.99
2022-11-11T12:19:26.161Z,16.04
2022-11-11T12:22:30.781Z,16.07
2022-11-11T12:25:58.224Z,16.07
2022-11-11T12:28:58.869Z,16.10
2022-11-11T12:32:20.021Z,16.10
2022-11-11T12:35:27.207Z,16.11
2022-11-11T12:38:24.565Z,16.16
2022-11-11T12:41:56.522Z,16.18
2022-11-11T12:45:19.917Z,16.21
2022-11-11T12:48:05.398Z,16.21
2022-11-11T12:51:39.090Z,16.23
2022-11-11T12:54:43.555Z,16.27
2022-11-11T12:57:46.570Z,16.30
2022-11-11T13:00:38.922Z,16.28
2022-11-11T13:03:46.909Z,16.29
2022-11-11T13:07:01.629Z,16.33
2022-11-11T13:10:12.803Z,16.40
2022-11-11T13:13:03.865Z,16.43
2022-11-11T13:15:49.939Z,16.47
2022-11-11T13:19:20.539Z,16.49
2022-11-11T13:22:23.678Z,16.53
2022-11-11T13:25:21.498Z,16.53
2022-11-11T13:28:18.302Z,16.61
2022-11-11T13:31:25.202Z,16.68
2022-11-11T13:34:15.180Z,16.74
2022-11-11T13:37:05.635Z,16.80
2022-11-11T13:39:57.693Z,16.84
2022-11-11T13:42:51.522Z,16.85
2022-11-11T13:45:42.536Z,16.85
2022-11-11T13:48:35.683Z,16.86
2022-11-11T13:51:43.603Z,16.86
2022-11-11T13:54:48.802Z,16.89
2022-11-11T13:57:36.133Z,16.90
2022-11-11T14:00:21.608Z,16.92
2022-11-11T14:03:22.048Z,16.94
2022-11-11T14:06:37.187Z,16.95
2022-11-11T14:09:58.425Z,16.95
2022-11-11T14:12:55.403Z,16.96
2022-11-11T14:15:43.518Z,16.94
2022-11-11T14:18:41.644Z,16.95
2022-11-11T14:21:54.374Z,16.93
2022-11-11T14:24:46.344Z,16.89
2022-11-11T14:27:34.121Z,16.89
2022-11-11T14:30:48.733Z,16.87
2022-11-11T14:34:27.993Z,16.85
2022-11-11T14:38:26.383Z,16.82
2022-11-11T14:41:42.384Z,16.78
2022-11-11T14:44:28.293Z,16.73
2022-11-11T14:47:13.551Z,16.71
2022-11-11T14:50:00.180Z,16.70
2022-11-11T14:52:46.758Z,16.69
2022-11-11T14:58:38.088Z,16.63
2022-11-11T15:01:25.981Z,16.63
2022-11-11T15:04:12.711Z,16.61
2022-11-11T15:07:02.874Z,16.59
2022-11-11T15:10:14.580Z,16.56
2022-11-11T15:13:55.606Z,16.52
2022-11-11T15:17:08.776Z,16.47
2022-11-11T15:20:30.920Z,16.42
2022-11-11T15:23:45.204Z,16.37
2022-11-11T15:27:05.260Z,16.33
2022-11-11T15:30:13.557Z,16.30
2022-11-11T15:33:28.509Z,16.25
2022-11-11T15:36:41.525Z,16.20
2022-11-11T15:39:41.906Z,16.18
2022-11-11T15:42:39.856Z,16.14
2022-11-11T15:45:34.038Z,16.11
2022-11-11T15:48:29.005Z,16.05
2022-11-11T15:51:21.350Z,16.01
2022-11-11T15:54:16.293Z,15.95
2022-11-11T15:57:26.257Z,15.92
2022-11-11T16:00:33.254Z,15.85
2022-11-11T16:03:32.493Z,15.82
2022-11-11T16:06:19.043Z,15.78
2022-11-11T16:09:05.124Z,15.74
2022-11-11T16:11:54.777Z,15.71
2022-11-11T16:14:47.237Z,15.68
2022-11-11T16:17:43.383Z,15.63
2022-11-11T16:20:43.298Z,15.58
2022-11-11T16:23:30.658Z,15.55
2022-11-11T16:26:20.693Z,15.52
2022-11-11T16:29:16.128Z,15.48
2022-11-11T16:32:03.650Z,15.45
2022-11-11T16:34:54.141Z,15.42
2022-11-11T16:37:54.209Z,15.39
2022-11-11T16:40:43.945Z,15.36
2022-11-11T16:43:32.789Z,15.33
2022-11-11T16:46:36.907Z,15.30
2022-11-11T16:49:38.743Z,15.27
2022-11-11T16:52:25.168Z,15.23
2022-11-11T16:55:37.957Z,15.18
2022-11-11T16:58:23.254Z,15.13
2022-11-11T17:01:10.126Z,15.09
2022-11-11T17:03:59.320Z,15.06
2022-11-11T17:06:56.721Z,15.03
2022-11-11T17:09:42.922Z,15.00
2022-11-11T17:12:32.352Z,14.95
2022-11-11T17:15:20.870Z,14.93
2022-11-11T17:18:09.001Z,14.90
2022-11-11T17:20:55.901Z,14.87
2022-11-11T17:23:41.552Z,14.85
2022-11-11T17:26:26.888Z,14.81
2022-11-11T17:29:12.521Z,14.80
2022-11-11T17:31:57.884Z,14.78
2022-11-11T17:34:43.626Z,14.75
2022-11-11T17:37:28.804Z,14.71
2022-11-11T17:40:18.907Z,14.66
2022-11-11T17:43:04.495Z,14.65
2022-11-11T17:45:51.629Z,14.62
2022-11-11T17:48:37.347Z,14.60
2022-11-11T17:51:26.253Z,14.56
2022-11-11T17:54:11.487Z,14.53
2022-11-11T17:56:57.122Z,14.49
2022-11-11T17:59:43.234Z,14.47
2022-11-11T18:02:28.819Z,14.45
2022-11-11T18:05:14.543Z,14.42
2022-11-11T18:07:59.787Z,14.40
2022-11-11T18:10:45.707Z,14.36
2022-11-11T18:13:32.125Z,14.33
2022-11-11T18:16:18.800Z,14.28
2022-11-11T18:19:05.022Z,14.26
2022-11-11T18:21:50.759Z,14.26
2022-11-11T18:24:36.449Z,14.24
2022-11-11T18:27:22.181Z,14.20
2022-11-11T18:30:09.555Z,14.18
2022-11-11T18:32:55.329Z,14.13
2022-11-11T18:35:40.988Z,14.10
2022-11-11T18:38:30.297Z,14.09
2022-11-11T18:41:19.370Z,14.08
2022-11-11T18:44:04.716Z,14.05
2022-11-11T18:46:50.031Z,14.01
2022-11-11T18:49:35.613Z,14.00
2022-11-11T18:52:21.256Z,14.00
2022-11-11T18:55:07.156Z,13.97
2022-11-11T18:57:52.740Z,13.95
2022-11-11T19:00:38.406Z,13.94
2022-11-11T19:03:24.059Z,13.92
2022-11-11T19:06:11.183Z,13.90
2022-11-11T19:08:59.771Z,13.89
2022-11-11T19:11:47.030Z,13.86
2022-11-11T19:14:32.486Z,13.82
2022-11-11T19:17:17.859Z,13.75
2022-11-11T19:20:05.810Z,13.73
2022-11-11T19:22:52.038Z,13.72
2022-11-11T19:25:39.127Z,13.70
2022-11-11T19:28:25.086Z,13.67
2022-11-11T19:31:19.594Z,13.65
2022-11-11T19:34:05.733Z,13.63
2022-11-11T19:36:51.387Z,13.58
2022-11-11T19:39:39.215Z,13.57
2022-11-11T19:42:25.579Z,13.55
2022-11-11T19:45:11.175Z,13.53
2022-11-11T19:47:56.742Z,13.49
2022-11-11T19:50:42.741Z,13.47
2022-11-11T19:53:28.537Z,13.46
2022-11-11T19:56:18.498Z,13.45
2022-11-11T19:59:04.468Z,13.43
2022-11-11T20:01:51.918Z,13.40
2022-11-11T20:04:38.297Z,13.38
2022-11-11T20:07:23.948Z,13.35
2022-11-11T20:10:10.572Z,13.32
2022-11-11T20:12:56.571Z,13.29
2022-11-11T20:15:42.670Z,13.27
2022-11-11T20:18:29.903Z,13.25
2022-11-11T20:21:15.872Z,13.24
2022-11-11T20:24:01.469Z,13.23
2022-11-11T20:26:51.835Z,13.23
2022-11-11T20:29:38.044Z,13.20
2022-11-11T20:32:23.725Z,13.17
2022-11-11T20:35:09.447Z,13.15
2022-11-11T20:37:54.898Z,13.13
2022-11-11T20:40:40.695Z,13.12
2022-11-11T20:43:29.407Z,13.10
2022-11-11T20:46:18.921Z,13.09
2022-11-11T20:49:04.656Z,13.05
2022-11-11T20:51:50.912Z,13.04
2022-11-11T20:54:38.139Z,13.01
2022-11-11T20:57:23.451Z,12.98
2022-11-11T21:00:10.091Z,12.95
2022-11-11T21:02:55.752Z,12.93
2022-11-11T21:05:41.928Z,12.92
2022-11-11T21:08:31.391Z,12.90
2022-11-11T21:11:22.310Z,12.88
2022-11-11T21:14:08.606Z,12.88
2022-11-11T21:16:54.300Z,12.85
2022-11-11T21:19:39.533Z,12.83
2022-11-11T21:22:25.419Z,12.80
2022-11-11T21:25:10.889Z,12.77
2022-11-11T21:27:56.562Z,12.76
2022-11-11T21:30:42.078Z,12.76
2022-11-11T21:33:28.195Z,12.74
2022-11-11T21:36:13.902Z,12.74
2022-11-11T21:39:03.947Z,12.73
2022-11-11T21:41:51.190Z,12.74
2022-11-11T21:44:36.328Z,12.71
2022-11-11T21:47:21.816Z,12.68
2022-11-11T21:50:07.741Z,12.65
2022-11-11T21:52:53.169Z,12.63
2022-11-11T21:55:38.923Z,12.62
2022-11-11T21:58:24.897Z,12.59
2022-11-11T22:01:41.803Z,12.58
2022-11-11T22:04:27.481Z,12.56
2022-11-11T22:07:18.832Z,12.54
2022-11-11T22:10:05.381Z,12.51
2022-11-11T22:12:52.697Z,12.47
2022-11-11T22:15:38.575Z,12.44
2022-11-11T22:18:24.646Z,12.39
2022-11-11T22:21:18.937Z,12.38
2022-11-11T22:24:08.930Z,12.35
2022-11-11T22:26:54.519Z,12.34
2022-11-11T22:29:39.961Z,12.34
2022-11-11T22:32:25.912Z,12.32
2022-11-11T22:35:11.759Z,12.31
2022-11-11T22:37:57.283Z,12.30
2022-11-11T22:40:43.534Z,12.28
2022-11-11T22:43:52.922Z,12.26
2022-11-11T22:46:36.610Z,12.23
2022-11-11T22:49:22.812Z,12.19
2022-11-11T22:52:08.267Z,12.14
2022-11-11T22:54:53.812Z,12.13
2022-11-11T22:57:39.544Z,12.08
2022-11-11T23:00:25.346Z,12.08
2022-11-11T23:03:11.032Z,12.08
2022-11-11T23:06:04.790Z,12.05
2022-11-11T23:08:51.324Z,12.04
2022-11-11T23:11:40.454Z,12.03
2022-11-11T23:14:25.867Z,12.01
2022-11-11T23:17:12.111Z,12.01
2022-11-11T23:19:57.555Z,12.00
2022-11-11T23:22:43.601Z,12.00
2022-11-11T23:25:29.465Z,11.97
2022-11-11T23:28:15.169Z,11.96
2022-11-11T23:31:10.860Z,11.95
2022-11-11T23:34:00.740Z,11.94
2022-11-11T23:36:46.261Z,11.92
2022-11-11T23:39:31.636Z,11.90
2022-11-11T23:42:17.427Z,11.89
2022-11-11T23:45:02.993Z,11.89
2022-11-11T23:47:48.611Z,11.88
2022-11-11T23:50:34.152Z,11.88
2022-11-11T23:53:20.520Z,11.89
2022-11-11T23:56:06.369Z,11.87
2022-11-11T23:58:52.097Z,11.87
